createdAt,value
2022-12-25T00:01:33.487Z,7.15
2022-12-25T00:04:02.684Z,7.26
2022-12-25T00:11:52.843Z,7.37
2022-12-25T00:14:19.376Z,7.50
2022-12-25T00:16:45.998Z,7.48
2022-12-25T00:19:12.828Z,7.60
2022-12-25T00:21:39.872Z,7.52
2022-12-25T00:24:06.694Z,7.59
2022-12-25T00:26:33.651Z,7.49
2022-12-25T00:29:00.292Z,7.57
2022-12-25T00:31:27.525Z,7.66
2022-12-25T00:33:54.455Z,7.74
2022-12-25T00:36:22.555Z,8.05
2022-12-25T00:38:49.227Z,7.99
2022-12-25T00:41:38.755Z,7.86
2022-12-25T00:44:06.972Z,7.98
2022-12-25T00:46:33.494Z,7.97
2022-12-25T00:49:00.585Z,8.09
2022-12-25T00:51:27.131Z,8.07
2022-12-25T00:53:54.338Z,8.02
2022-12-25T00:56:21.114Z,8.01
2022-12-25T00:58:47.669Z,8.03
2022-12-25T01:01:14.625Z,8.07
2022-12-25T01:03:41.375Z,8.27
2022-12-25T01:06:10.867Z,8.28
2022-12-25T01:09:00.129Z,8.28
2022-12-25T01:11:27.695Z,8.23
2022-12-25T01:13:55.210Z,8.40
2022-12-25T01:16:22.829Z,8.51
2022-12-25T01:18:49.575Z,8.43
2022-12-25T01:21:18.290Z,8.46
2022-12-25T01:23:46.062Z,8.47
2022-12-25T01:26:15.696Z,8.68
2022-12-25T01:28:43.707Z,8.62
2022-12-25T01:31:15.720Z,8.67
2022-12-25T01:33:47.644Z,8.69
2022-12-25T01:36:17.879Z,8.57
2022-12-25T01:38:46.240Z,8.68
2022-12-25T01:41:15.508Z,8.67
2022-12-25T01:44:09.459Z,8.59
2022-12-25T01:46:37.856Z,8.46
2022-12-25T01:49:09.558Z,8.50
2022-12-25T01:51:57.446Z,8.57
2022-12-25T01:54:29.011Z,8.53
2022-12-25T01:56:59.994Z,8.45
2022-12-25T01:59:28.189Z,8.56
2022-12-25T02:01:56.663Z,8.56
2022-12-25T02:04:38.750Z,8.56
2022-12-25T02:07:18.504Z,8.59
2022-12-25T02:09:47.590Z,8.67
2022-12-25T02:12:24.847Z,8.78
2022-12-25T02:15:02.849Z,8.70
2022-12-25T02:17:46.363Z,8.85
2022-12-25T02:20:43.129Z,8.87
2022-12-25T02:23:31.765Z,8.80
2022-12-25T02:26:17.454Z,8.80
2022-12-25T02:29:19.722Z,8.81
2022-12-25T02:32:00.133Z,9.01
2022-12-25T02:35:01.836Z,8.94
2022-12-25T02:40:50.747Z,8.88
2022-12-25T02:43:50.063Z,8.83
2022-12-25T02:46:40.825Z,8.84
2022-12-25T02:49:36.164Z,9.00
2022-12-25T02:52:28.859Z,8.81
2022-12-25T02:55:26.776Z,8.83
2022-12-25T02:58:15.349Z,8.91
2022-12-25T03:01:06.852Z,8.86
2022-12-25T03:03:59.224Z,8.77
2022-12-25T03:06:43.576Z,8.81
2022-12-25T03:09:39.563Z,8.72
2022-12-25T03:12:37.541Z,8.67
2022-12-25T03:15:26.537Z,8.70
2022-12-25T03:17:55.498Z,8.67
2022-12-25T03:20:43.036Z,8.76
2022-12-25T03:23:32.057Z,8.72
2022-12-25T03:26:17.453Z,8.67
2022-12-25T03:28:44.116Z,8.70
2022-12-25T03:31:29.190Z,8.67
2022-12-25T03:34:49.471Z,8.58
2022-12-25T03:37:44.183Z,8.42
2022-12-25T03:40:57.534Z,8.44
2022-12-25T03:44:26.244Z,8.24
2022-12-25T03:47:20.536Z,8.40
2022-12-25T03:52:49.242Z,8.38
2022-12-25T03:55:37.772Z,8.40
2022-12-25T04:01:04.433Z,8.42
2022-12-25T04:03:50.220Z,8.48
2022-12-25T04:06:35.552Z,8.45
2022-12-25T04:09:21.025Z,8.50
2022-12-25T04:12:06.624Z,8.63
2022-12-25T04:14:51.952Z,8.69
2022-12-25T04:17:37.219Z,8.76
2022-12-25T04:20:22.430Z,8.85
2022-12-25T04:23:08.065Z,8.68
2022-12-25T04:25:53.548Z,8.57
2022-12-25T04:28:38.772Z,8.47
2022-12-25T04:31:24.600Z,8.66
2022-12-25T04:34:09.936Z,8.79
2022-12-25T04:36:36.709Z,8.75
2022-12-25T04:39:03.369Z,8.69
2022-12-25T04:41:30.087Z,8.68
2022-12-25T04:43:56.684Z,8.60
2022-12-25T04:46:23.322Z,8.57
2022-12-25T04:48:50.083Z,8.69
2022-12-25T04:51:19.366Z,8.80
2022-12-25T04:53:47.330Z,8.76
2022-12-25T04:56:14.606Z,8.78
2022-12-25T04:58:42.101Z,8.82
2022-12-25T05:01:09.523Z,8.85
2022-12-25T05:06:27.609Z,8.85
2022-12-25T05:08:54.075Z,8.90
2022-12-25T05:11:21.726Z,8.88
2022-12-25T05:13:49.182Z,8.74
2022-12-25T05:16:18.421Z,8.68
2022-12-25T05:18:45.235Z,8.64
2022-12-25T05:21:12.266Z,8.64
2022-12-25T05:23:38.955Z,8.65
2022-12-25T05:26:09.855Z,8.61
2022-12-25T05:28:37.455Z,8.69
2022-12-25T05:31:04.132Z,8.88
2022-12-25T05:33:30.980Z,8.98
2022-12-25T05:35:57.329Z,9.00
2022-12-25T05:38:24.002Z,8.93
2022-12-25T05:40:51.797Z,8.85
2022-12-25T05:43:19.458Z,8.87
2022-12-25T05:45:46.284Z,8.71
2022-12-25T05:48:13.132Z,8.68
2022-12-25T05:50:39.649Z,8.73
2022-12-25T05:53:09.014Z,8.84
2022-12-25T05:55:38.033Z,8.88
2022-12-25T05:58:06.428Z,8.92
2022-12-25T06:00:34.589Z,8.95
2022-12-25T06:03:01.505Z,8.96
2022-12-25T06:05:28.247Z,8.91
2022-12-25T06:07:55.035Z,8.97
2022-12-25T06:10:21.612Z,8.89
2022-12-25T06:12:49.037Z,8.85
2022-12-25T06:15:15.661Z,8.97
2022-12-25T06:17:42.728Z,8.96
2022-12-25T06:20:09.678Z,8.99
2022-12-25T06:22:36.950Z,8.86
2022-12-25T06:25:03.823Z,8.92
2022-12-25T06:27:30.771Z,8.92
2022-12-25T06:29:57.476Z,8.99
2022-12-25T06:32:23.986Z,9.01
2022-12-25T06:34:50.808Z,8.92
2022-12-25T06:37:17.235Z,8.88
2022-12-25T06:39:43.790Z,8.86
2022-12-25T06:42:10.639Z,8.87
2022-12-25T06:44:37.925Z,8.94
2022-12-25T06:47:04.881Z,8.95
2022-12-25T06:49:31.559Z,8.94
2022-12-25T06:51:58.252Z,8.94
2022-12-25T06:54:24.663Z,9.03
2022-12-25T06:56:51.213Z,8.92
2022-12-25T06:59:20.042Z,8.85
2022-12-25T07:01:53.428Z,8.83
2022-12-25T07:04:37.938Z,8.83
2022-12-25T07:07:09.229Z,8.83
2022-12-25T07:09:38.599Z,8.84
2022-12-25T07:12:16.118Z,8.86
2022-12-25T07:14:43.918Z,8.84
2022-12-25T07:17:10.501Z,8.85
2022-12-25T07:19:42.677Z,8.95
2022-12-25T07:22:11.254Z,9.06
2022-12-25T07:24:38.041Z,9.09
2022-12-25T07:27:04.735Z,9.09
2022-12-25T07:29:32.171Z,9.04
2022-12-25T07:32:02.079Z,9.06
2022-12-25T07:34:28.823Z,9.04
2022-12-25T07:36:55.323Z,9.14
2022-12-25T07:39:23.552Z,9.11
2022-12-25T07:41:50.961Z,9.15
2022-12-25T07:44:17.537Z,9.16
2022-12-25T07:46:44.402Z,9.21
2022-12-25T07:49:11.930Z,9.21
2022-12-25T07:51:39.615Z,9.14
2022-12-25T07:54:06.579Z,9.19
2022-12-25T07:56:33.019Z,9.10
2022-12-25T07:58:59.496Z,9.16
2022-12-25T08:01:27.665Z,9.25
2022-12-25T08:03:56.982Z,9.22
2022-12-25T08:09:12.768Z,9.24
2022-12-25T08:11:44.028Z,9.31
2022-12-25T08:14:10.721Z,9.38
2022-12-25T08:16:41.451Z,9.41
2022-12-25T08:19:09.047Z,9.29
2022-12-25T08:21:35.692Z,9.30
2022-12-25T08:24:03.330Z,9.33
2022-12-25T08:26:30.503Z,9.35
2022-12-25T08:28:57.147Z,9.39
2022-12-25T08:31:29.474Z,9.35
2022-12-25T08:33:58.084Z,9.43
2022-12-25T08:36:25.278Z,9.49
2022-12-25T08:38:55.715Z,9.55
2022-12-25T08:41:27.773Z,9.50
2022-12-25T08:43:54.599Z,9.41
2022-12-25T08:46:21.312Z,9.45
2022-12-25T08:48:49.896Z,9.52
2022-12-25T08:51:19.998Z,9.51
2022-12-25T08:53:48.638Z,9.51
2022-12-25T08:56:18.221Z,9.43
2022-12-25T08:58:45.836Z,9.42
2022-12-25T09:01:14.304Z,9.47
2022-12-25T09:03:41.325Z,9.51
2022-12-25T09:06:15.015Z,9.49
2022-12-25T09:08:48.767Z,9.41
2022-12-25T09:11:21.714Z,9.50
2022-12-25T09:13:49.166Z,9.51
2022-12-25T09:16:18.840Z,9.40
2022-12-25T09:18:46.142Z,9.54
2022-12-25T09:21:14.361Z,9.46
2022-12-25T09:23:42.696Z,9.64
2022-12-25T09:26:13.930Z,9.60
2022-12-25T09:28:45.144Z,9.64
2022-12-25T09:31:15.447Z,9.56
2022-12-25T09:33:41.881Z,9.48
2022-12-25T09:36:08.994Z,9.52
2022-12-25T09:38:36.439Z,9.49
2022-12-25T09:41:31.817Z,9.49
2022-12-25T09:44:44.686Z,9.52
2022-12-25T09:47:15.864Z,9.57
2022-12-25T09:49:52.339Z,9.76
2022-12-25T09:52:23.422Z,9.86
2022-12-25T09:54:59.747Z,9.96
2022-12-25T09:57:26.589Z,9.98
2022-12-25T09:59:56.693Z,10.09
2022-12-25T10:02:32.474Z,9.98
2022-12-25T10:05:21.426Z,9.98
2022-12-25T10:08:12.812Z,9.93
2022-12-25T10:10:57.457Z,9.96
2022-12-25T10:13:36.943Z,9.93
2022-12-25T10:16:48.310Z,10.11
2022-12-25T10:19:34.954Z,10.15
2022-12-25T10:22:09.364Z,10.07
2022-12-25T10:24:42.559Z,9.90
2022-12-25T10:27:46.603Z,9.98
2022-12-25T10:30:19.454Z,9.95
2022-12-25T10:32:47.908Z,9.87
2022-12-25T10:35:18.512Z,9.83
2022-12-25T10:37:48.749Z,9.78
2022-12-25T10:40:35.384Z,9.85
2022-12-25T10:43:11.573Z,9.77
2022-12-25T10:45:49.512Z,9.81
2022-12-25T10:48:26.181Z,9.69
2022-12-25T10:50:52.949Z,9.62
2022-12-25T10:53:24.096Z,9.62
2022-12-25T10:56:16.775Z,9.64
2022-12-25T10:58:44.287Z,9.67
2022-12-25T11:01:12.052Z,9.70
2022-12-25T11:03:41.808Z,9.66
2022-12-25T11:06:25.332Z,9.81
2022-12-25T11:08:58.352Z,9.77
2022-12-25T11:11:26.090Z,9.94
2022-12-25T11:13:56.214Z,10.00
2022-12-25T11:16:28.042Z,10.26
2022-12-25T11:18:56.311Z,10.28
2022-12-25T11:21:34.282Z,10.44
2022-12-25T11:24:19.435Z,10.55
2022-12-25T11:26:47.772Z,10.73
2022-12-25T11:29:46.567Z,10.77
2022-12-25T11:32:25.018Z,10.76
2022-12-25T11:34:53.382Z,10.82
2022-12-25T11:37:48.304Z,11.09
2022-12-25T11:40:18.047Z,11.14
2022-12-25T11:42:50.579Z,11.20
2022-12-25T11:45:26.076Z,11.36
2022-12-25T11:47:57.193Z,11.30
2022-12-25T11:50:35.566Z,11.28
2022-12-25T11:53:06.786Z,11.27
2022-12-25T11:55:47.097Z,11.15
2022-12-25T11:58:33.243Z,11.11
2022-12-25T12:01:04.064Z,11.11
2022-12-25T12:03:35.902Z,11.18
2022-12-25T12:06:51.743Z,11.27
2022-12-25T12:09:24.610Z,11.37
2022-12-25T12:12:15.486Z,11.30
2022-12-25T12:15:04.300Z,11.22
2022-12-25T12:17:31.922Z,11.24
2022-12-25T12:19:58.875Z,11.14
2022-12-25T12:22:28.102Z,11.04
2022-12-25T12:25:05.742Z,11.08
2022-12-25T12:27:37.551Z,11.12
2022-12-25T12:30:07.353Z,11.23
2022-12-25T12:32:40.625Z,11.22
2022-12-25T12:35:18.612Z,11.06
2022-12-25T12:37:53.262Z,11.08
2022-12-25T12:40:36.722Z,11.11
2022-12-25T12:43:05.925Z,11.10
2022-12-25T12:45:36.475Z,11.15
2022-12-25T12:48:15.495Z,11.21
2022-12-25T12:50:42.892Z,10.98
2022-12-25T12:53:30.930Z,11.04
2022-12-25T12:56:09.644Z,10.92
2022-12-25T12:58:39.641Z,10.97
2022-12-25T13:01:36.627Z,10.96
2022-12-25T13:04:14.914Z,11.06
2022-12-25T13:06:47.136Z,11.08
2022-12-25T13:09:44.769Z,11.11
2022-12-25T13:12:14.887Z,11.14
2022-12-25T13:14:46.950Z,11.23
2022-12-25T13:17:25.619Z,11.28
2022-12-25T13:19:56.122Z,11.26
2022-12-25T13:22:36.657Z,11.25
2022-12-25T13:25:07.636Z,11.41
2022-12-25T13:27:34.680Z,11.35
2022-12-25T13:30:12.443Z,11.21
2022-12-25T13:32:39.515Z,11.10
2022-12-25T13:35:12.510Z,11.14
2022-12-25T13:37:39.316Z,11.06
2022-12-25T13:40:08.438Z,11.10
2022-12-25T13:42:37.650Z,11.31
2022-12-25T13:45:14.335Z,11.29
2022-12-25T13:47:43.336Z,11.17
2022-12-25T13:50:30.203Z,11.37
2022-12-25T13:53:10.509Z,11.27
2022-12-25T13:55:37.949Z,11.32
2022-12-25T13:58:06.223Z,11.08
2022-12-25T14:00:48.839Z,11.14
2022-12-25T14:03:28.689Z,11.36
2022-12-25T14:06:00.614Z,11.35
2022-12-25T14:08:31.956Z,11.41
2022-12-25T14:11:03.657Z,11.32
2022-12-25T14:13:32.497Z,11.41
2022-12-25T14:15:59.895Z,11.52
2022-12-25T14:18:27.173Z,11.58
2022-12-25T14:21:06.264Z,11.47
2022-12-25T14:23:50.801Z,11.53
2022-12-25T14:26:19.874Z,11.68
2022-12-25T14:28:53.522Z,11.57
2022-12-25T14:31:21.484Z,11.56
2022-12-25T14:33:48.951Z,11.57
2022-12-25T14:36:15.757Z,11.56
2022-12-25T14:38:43.971Z,11.38
2022-12-25T14:41:33.523Z,11.51
2022-12-25T14:44:02.954Z,11.55
2022-12-25T14:46:32.627Z,11.51
2022-12-25T14:49:22.771Z,11.61
2022-12-25T14:51:50.038Z,11.56
2022-12-25T14:54:21.550Z,11.49
2022-12-25T14:56:53.826Z,11.63
2022-12-25T14:59:24.763Z,11.67
2022-12-25T15:01:58.564Z,11.64
2022-12-25T15:04:27.215Z,11.68
2022-12-25T15:07:07.014Z,11.59
2022-12-25T15:09:33.910Z,11.62
2022-12-25T15:12:00.358Z,11.86
2022-12-25T15:14:27.587Z,11.78
2022-12-25T15:17:00.705Z,11.62
2022-12-25T15:19:38.067Z,11.59
2022-12-25T15:22:05.626Z,11.72
2022-12-25T15:24:32.309Z,11.67
2022-12-25T15:27:00.497Z,11.72
2022-12-25T15:30:00.145Z,11.64
2022-12-25T15:32:20.265Z,11.52
2022-12-25T15:34:49.653Z,11.59
2022-12-25T15:37:17.488Z,11.58
2022-12-25T15:39:44.519Z,11.57
2022-12-25T15:42:15.277Z,11.73
2022-12-25T15:44:42.543Z,11.70
2022-12-25T15:47:11.117Z,11.63
2022-12-25T15:49:37.742Z,11.54
2022-12-25T15:52:12.512Z,11.39
2022-12-25T15:54:39.589Z,11.48
2022-12-25T15:57:13.972Z,11.58
2022-12-25T15:59:40.562Z,11.80
2022-12-25T16:02:14.927Z,11.61
2022-12-25T16:04:42.640Z,11.46
2022-12-25T16:07:15.379Z,11.62
2022-12-25T16:09:42.281Z,11.65
2022-12-25T16:12:09.785Z,11.54
2022-12-25T16:14:36.583Z,11.58
2022-12-25T16:17:04.377Z,11.64
2022-12-25T16:19:30.968Z,11.59
2022-12-25T16:21:57.416Z,11.46
2022-12-25T16:24:25.042Z,11.51
2022-12-25T16:26:51.417Z,11.61
2022-12-25T16:29:18.111Z,11.57
2022-12-25T16:31:44.678Z,11.60
2022-12-25T16:34:11.166Z,11.52
2022-12-25T16:36:37.765Z,11.51
2022-12-25T16:39:04.745Z,11.57
2022-12-25T16:41:31.277Z,11.58
2022-12-25T16:43:58.173Z,11.61
2022-12-25T16:46:25.049Z,11.53
2022-12-25T16:48:51.585Z,11.55
2022-12-25T16:51:20.794Z,11.56
2022-12-25T16:53:48.583Z,11.53
2022-12-25T16:56:20.542Z,11.57
2022-12-25T16:58:47.789Z,11.70
2022-12-25T17:01:18.515Z,11.88
2022-12-25T17:03:47.205Z,11.73
2022-12-25T17:06:14.913Z,11.69
2022-12-25T17:08:42.427Z,11.58
2022-12-25T17:11:09.292Z,11.64
2022-12-25T17:13:36.192Z,11.70
2022-12-25T17:16:21.254Z,11.68
2022-12-25T17:18:52.768Z,11.75
2022-12-25T17:21:19.297Z,11.66
2022-12-25T17:23:46.096Z,11.77
2022-12-25T17:26:12.895Z,11.73
2022-12-25T17:28:40.226Z,11.68
2022-12-25T17:31:09.105Z,11.74
2022-12-25T17:33:37.022Z,11.62
2022-12-25T17:36:05.763Z,11.74
2022-12-25T17:38:33.127Z,11.76
2022-12-25T17:41:02.243Z,11.79
2022-12-25T17:43:28.980Z,11.91
2022-12-25T17:45:55.556Z,11.87
2022-12-25T17:48:22.114Z,11.90
2022-12-25T17:50:49.225Z,11.91
2022-12-25T17:53:15.757Z,12.01
2022-12-25T17:55:43.406Z,12.05
2022-12-25T17:58:10.334Z,11.91
2022-12-25T18:00:37.463Z,12.04
2022-12-25T18:03:11.216Z,12.01
2022-12-25T18:05:38.473Z,12.00
2022-12-25T18:08:05.336Z,12.19
2022-12-25T18:10:36.521Z,12.01
2022-12-25T18:13:03.505Z,11.98
2022-12-25T18:15:30.181Z,11.96
2022-12-25T18:17:57.169Z,11.92
2022-12-25T18:20:23.755Z,11.94
2022-12-25T18:22:50.279Z,11.80
2022-12-25T18:25:16.746Z,11.83
2022-12-25T18:27:43.579Z,12.13
2022-12-25T18:30:10.604Z,12.10
2022-12-25T18:32:38.607Z,12.08
2022-12-25T18:35:05.625Z,11.95
2022-12-25T18:37:37.777Z,11.91
2022-12-25T18:40:07.345Z,11.81
2022-12-25T18:42:39.970Z,12.03
2022-12-25T18:45:09.788Z,11.95
2022-12-25T18:47:36.435Z,12.00
2022-12-25T18:50:04.142Z,11.78
2022-12-25T18:52:49.554Z,11.82
2022-12-25T18:55:17.935Z,11.89
2022-12-25T18:57:44.531Z,11.72
2022-12-25T19:00:11.941Z,11.65
2022-12-25T19:02:39.712Z,11.61
2022-12-25T19:05:06.619Z,11.78
2022-12-25T19:07:34.174Z,11.59
2022-12-25T19:10:00.676Z,11.80
2022-12-25T19:12:27.121Z,11.69
2022-12-25T19:14:53.593Z,11.73
2022-12-25T19:17:20.147Z,11.85
2022-12-25T19:19:47.017Z,11.72
2022-12-25T19:22:13.939Z,11.62
2022-12-25T19:24:40.472Z,11.77
2022-12-25T19:27:07.149Z,11.78
2022-12-25T19:29:34.188Z,11.80
2022-12-25T19:32:00.808Z,11.81
2022-12-25T19:34:27.456Z,11.88
2022-12-25T19:36:54.057Z,11.80
2022-12-25T19:39:20.634Z,11.78
2022-12-25T19:41:47.796Z,11.46
2022-12-25T19:44:15.032Z,11.57
2022-12-25T19:46:41.767Z,11.55
2022-12-25T19:49:13.424Z,11.59
2022-12-25T19:51:42.603Z,11.56
2022-12-25T19:54:17.189Z,11.54
2022-12-25T19:56:44.572Z,11.68
2022-12-25T19:59:12.270Z,11.80
2022-12-25T20:01:39.311Z,11.80
2022-12-25T20:04:08.641Z,11.85
2022-12-25T20:06:38.110Z,11.83
2022-12-25T20:09:08.922Z,11.98
2022-12-25T20:11:36.663Z,11.96
2022-12-25T20:14:04.168Z,12.10
2022-12-25T20:16:30.910Z,11.58
2022-12-25T20:18:57.745Z,11.44
2022-12-25T20:21:26.685Z,11.57
2022-12-25T20:23:54.118Z,11.54
2022-12-25T20:26:23.234Z,11.41
2022-12-25T20:28:50.409Z,11.26
2022-12-25T20:31:20.231Z,11.40
2022-12-25T20:33:47.477Z,11.16
2022-12-25T20:36:15.116Z,11.08
2022-12-25T20:38:41.972Z,11.15
2022-12-25T20:41:28.741Z,11.08
2022-12-25T20:43:56.384Z,11.11
2022-12-25T20:46:23.828Z,11.42
2022-12-25T20:48:51.810Z,11.46
2022-12-25T20:51:21.824Z,11.38
2022-12-25T20:53:48.960Z,10.95
2022-12-25T20:56:17.471Z,10.85
2022-12-25T20:58:44.705Z,10.84
2022-12-25T21:01:14.478Z,10.69
2022-12-25T21:03:41.848Z,10.78
2022-12-25T21:06:09.738Z,10.69
2022-12-25T21:08:37.511Z,10.49
2022-12-25T21:11:05.428Z,10.56
2022-12-25T21:13:35.046Z,10.55
2022-12-25T21:16:06.853Z,10.39
2022-12-25T21:18:33.959Z,10.54
2022-12-25T21:21:04.671Z,10.63
2022-12-25T21:23:32.471Z,10.59
2022-12-25T21:26:00.020Z,10.68
2022-12-25T21:28:29.481Z,10.73
2022-12-25T21:31:04.176Z,10.97
2022-12-25T21:33:49.127Z,10.92
2022-12-25T21:36:16.899Z,10.91
2022-12-25T21:38:45.292Z,11.37
2022-12-25T21:41:14.553Z,11.31
2022-12-25T21:43:42.882Z,11.32
2022-12-25T21:46:12.324Z,11.21
2022-12-25T21:48:40.113Z,11.05
2022-12-25T21:51:33.388Z,11.08
2022-12-25T21:54:00.957Z,11.33
2022-12-25T21:56:32.277Z,11.06
2022-12-25T21:59:00.994Z,11.06
2022-12-25T22:01:28.858Z,11.00
2022-12-25T22:03:57.309Z,11.06
2022-12-25T22:06:42.655Z,11.51
2022-12-25T22:09:09.235Z,11.39
2022-12-25T22:11:54.372Z,11.29
2022-12-25T22:14:52.904Z,11.08
2022-12-25T22:17:56.440Z,11.06
2022-12-25T22:20:30.001Z,11.12
2022-12-25T22:22:58.038Z,11.16
2022-12-25T22:25:25.040Z,11.59
2022-12-25T22:27:52.621Z,11.62
2022-12-25T22:30:22.853Z,11.66
2022-12-25T22:32:50.500Z,12.12
2022-12-25T22:35:17.411Z,12.08
2022-12-25T22:37:44.098Z,11.89
2022-12-25T22:40:13.913Z,11.74
2022-12-25T22:42:41.078Z,11.90
2022-12-25T22:45:08.640Z,11.94
2022-12-25T22:47:36.242Z,11.96
2022-12-25T22:50:02.933Z,11.91
2022-12-25T22:52:30.191Z,11.90
2022-12-25T22:54:56.939Z,12.08
2022-12-25T22:57:23.741Z,12.44
2022-12-25T22:59:52.549Z,12.37
2022-12-25T23:02:19.453Z,12.26
2022-12-25T23:04:47.691Z,12.31
2022-12-25T23:07:15.496Z,12.33
2022-12-25T23:09:43.324Z,12.27
2022-12-25T23:12:33.239Z,12.02
2022-12-25T23:14:59.645Z,12.32
2022-12-25T23:17:44.961Z,12.16
2022-12-25T23:20:33.339Z,12.27
2022-12-25T23:23:18.436Z,12.11
2022-12-25T23:26:03.773Z,12.11
2022-12-25T23:28:49.114Z,12.05
2022-12-25T23:31:15.893Z,11.95
2022-12-25T23:33:43.367Z,11.94
2022-12-25T23:36:09.904Z,11.99
2022-12-25T23:38:36.453Z,11.86
2022-12-25T23:41:02.917Z,11.78
2022-12-25T23:43:29.522Z,11.67
2022-12-25T23:45:55.966Z,12.09
2022-12-25T23:48:22.744Z,12.18
2022-12-25T23:50:49.211Z,12.06
2022-12-25T23:53:16.280Z,12.07
2022-12-25T23:55:43.365Z,12.16
2022-12-25T23:58:10.200Z,12.02
